sensor_id;sensor_type;location;lat;lon;timestamp;temperature;humidity
40289;DHT22;28991;52.028;5.526;2023-05-07T00:00:32;19.90;50.90
40289;DHT22;28991;52.028;5.526;2023-05-07T00:02:59;20.40;51.20
40289;DHT22;28991;52.028;5.526;2023-05-07T00:05:25;19.90;50.90
40289;DHT22;28991;52.028;5.526;2023-05-07T00:07:51;19.90;50.90
40289;DHT22;28991;52.028;5.526;2023-05-07T00:10:18;19.80;50.90
40289;DHT22;28991;52.028;5.526;2023-05-07T00:12:43;19.90;50.90
40289;DHT22;28991;52.028;5.526;2023-05-07T00:15:09;19.90;51.00
40289;DHT22;28991;52.028;5.526;2023-05-07T00:17:35;19.90;50.90
40289;DHT22;28991;52.028;5.526;2023-05-07T00:20:01;19.90;51.00
40289;DHT22;28991;52.028;5.526;2023-05-07T00:22:27;19.80;50.90
40289;DHT22;28991;52.028;5.526;2023-05-07T00:24:52;19.80;50.90
40289;DHT22;28991;52.028;5.526;2023-05-07T00:27:18;19.80;51.00
40289;DHT22;28991;52.028;5.526;2023-05-07T00:29:43;19.80;50.90
40289;DHT22;28991;52.028;5.526;2023-05-07T00:32:09;19.80;50.90
40289;DHT22;28991;52.028;5.526;2023-05-07T00:34:34;19.80;50.90
40289;DHT22;28991;52.028;5.526;2023-05-07T00:37:01;20.10;51.10
40289;DHT22;28991;52.028;5.526;2023-05-07T00:39:26;19.90;51.00
40289;DHT22;28991;52.028;5.526;2023-05-07T00:41:52;19.90;51.00
40289;DHT22;28991;52.028;5.526;2023-05-07T00:44:17;19.80;51.00
40289;DHT22;28991;52.028;5.526;2023-05-07T00:46:43;19.90;51.00
40289;DHT22;28991;52.028;5.526;2023-05-07T00:49:10;19.80;51.00
40289;DHT22;28991;52.028;5.526;2023-05-07T00:51:36;19.80;51.00
40289;DHT22;28991;52.028;5.526;2023-05-07T00:54:03;19.70;51.00
40289;DHT22;28991;52.028;5.526;2023-05-07T00:56:28;19.80;51.00
40289;DHT22;28991;52.028;5.526;2023-05-07T00:58:54;19.90;51.10
40289;DHT22;28991;52.028;5.526;2023-05-07T01:01:20;19.80;51.60
40289;DHT22;28991;52.028;5.526;2023-05-07T01:03:45;19.80;51.00
40289;DHT22;28991;52.028;5.526;2023-05-07T01:06:12;19.80;51.10
40289;DHT22;28991;52.028;5.526;2023-05-07T01:08:39;19.80;51.10
40289;DHT22;28991;52.028;5.526;2023-05-07T01:11:07;20.20;51.30
40289;DHT22;28991;52.028;5.526;2023-05-07T01:13:34;20.10;51.20
40289;DHT22;28991;52.028;5.526;2023-05-07T01:15:59;20.10;51.20
40289;DHT22;28991;52.028;5.526;2023-05-07T01:18:25;19.80;51.10
40289;DHT22;28991;52.028;5.526;2023-05-07T01:20:52;19.80;51.10
40289;DHT22;28991;52.028;5.526;2023-05-07T01:23:18;20.00;51.20
40289;DHT22;28991;52.028;5.526;2023-05-07T01:25:51;19.80;51.70
40289;DHT22;28991;52.028;5.526;2023-05-07T01:28:16;19.80;51.20
40289;DHT22;28991;52.028;5.526;2023-05-07T01:30:44;19.80;51.10
40289;DHT22;28991;52.028;5.526;2023-05-07T01:33:14;19.70;51.10
40289;DHT22;28991;52.028;5.526;2023-05-07T01:35:43;19.80;51.10
40289;DHT22;28991;52.028;5.526;2023-05-07T01:38:10;20.00;51.30
40289;DHT22;28991;52.028;5.526;2023-05-07T01:40:36;19.70;51.10
40289;DHT22;28991;52.028;5.526;2023-05-07T01:43:03;19.70;51.10
40289;DHT22;28991;52.028;5.526;2023-05-07T01:45:30;20.10;51.30
40289;DHT22;28991;52.028;5.526;2023-05-07T01:47:57;19.70;51.10
40289;DHT22;28991;52.028;5.526;2023-05-07T01:50:23;19.80;51.20
40289;DHT22;28991;52.028;5.526;2023-05-07T01:52:50;19.70;51.10
40289;DHT22;28991;52.028;5.526;2023-05-07T01:55:16;19.70;51.10
40289;DHT22;28991;52.028;5.526;2023-05-07T01:57:42;19.80;51.20
40289;DHT22;28991;52.028;5.526;2023-05-07T02:00:08;19.70;51.10
40289;DHT22;28991;52.028;5.526;2023-05-07T02:02:34;19.70;51.10
40289;DHT22;28991;52.028;5.526;2023-05-07T02:05:00;19.70;51.20
40289;DHT22;28991;52.028;5.526;2023-05-07T02:07:27;19.80;51.20
40289;DHT22;28991;52.028;5.526;2023-05-07T02:09:53;19.70;51.10
40289;DHT22;28991;52.028;5.526;2023-05-07T02:12:20;20.00;51.30
40289;DHT22;28991;52.028;5.526;2023-05-07T02:14:46;19.70;51.10
40289;DHT22;28991;52.028;5.526;2023-05-07T02:17:12;19.70;51.10
40289;DHT22;28991;52.028;5.526;2023-05-07T02:19:37;19.70;51.10
40289;DHT22;28991;52.028;5.526;2023-05-07T02:22:03;19.70;51.10
40289;DHT22;28991;52.028;5.526;2023-05-07T02:24:28;19.70;51.10
40289;DHT22;28991;52.028;5.526;2023-05-07T02:26:54;19.70;51.10
40289;DHT22;28991;52.028;5.526;2023-05-07T02:29:19;19.70;51.10
40289;DHT22;28991;52.028;5.526;2023-05-07T02:31:45;19.70;51.10
40289;DHT22;28991;52.028;5.526;2023-05-07T02:34:10;19.70;51.10
40289;DHT22;28991;52.028;5.526;2023-05-07T02:36:36;19.70;51.10
40289;DHT22;28991;52.028;5.526;2023-05-07T02:39:02;19.80;51.20
40289;DHT22;28991;52.028;5.526;2023-05-07T02:41:28;19.70;51.10
40289;DHT22;28991;52.028;5.526;2023-05-07T02:43:54;19.70;51.20
40289;DHT22;28991;52.028;5.526;2023-05-07T02:46:19;19.70;51.10
40289;DHT22;28991;52.028;5.526;2023-05-07T02:48:45;19.80;51.20
40289;DHT22;28991;52.028;5.526;2023-05-07T02:51:10;19.70;51.20
40289;DHT22;28991;52.028;5.526;2023-05-07T02:53:36;19.80;51.20
40289;DHT22;28991;52.028;5.526;2023-05-07T02:56:02;19.60;51.10
40289;DHT22;28991;52.028;5.526;2023-05-07T02:58:28;19.70;51.20
40289;DHT22;28991;52.028;5.526;2023-05-07T03:00:53;19.70;51.20
40289;DHT22;28991;52.028;5.526;2023-05-07T03:03:22;19.70;51.20
40289;DHT22;28991;52.028;5.526;2023-05-07T03:05:48;19.70;51.20
40289;DHT22;28991;52.028;5.526;2023-05-07T03:08:13;19.70;51.20
40289;DHT22;28991;52.028;5.526;2023-05-07T03:10:39;19.70;51.20
40289;DHT22;28991;52.028;5.526;2023-05-07T03:13:05;19.60;51.10
40289;DHT22;28991;52.028;5.526;2023-05-07T03:15:31;19.90;51.30
40289;DHT22;28991;52.028;5.526;2023-05-07T03:17:56;19.70;51.20
40289;DHT22;28991;52.028;5.526;2023-05-07T03:20:22;19.70;51.30
40289;DHT22;28991;52.028;5.526;2023-05-07T03:22:48;19.70;51.20
40289;DHT22;28991;52.028;5.526;2023-05-07T03:25:13;20.00;51.40
40289;DHT22;28991;52.028;5.526;2023-05-07T03:27:40;19.70;51.20
40289;DHT22;28991;52.028;5.526;2023-05-07T03:30:07;19.70;51.20
40289;DHT22;28991;52.028;5.526;2023-05-07T03:32:34;19.70;51.30
40289;DHT22;28991;52.028;5.526;2023-05-07T03:35:00;19.70;51.30
40289;DHT22;28991;52.028;5.526;2023-05-07T03:37:26;19.70;51.20
40289;DHT22;28991;52.028;5.526;2023-05-07T03:39:52;19.60;51.20
40289;DHT22;28991;52.028;5.526;2023-05-07T03:42:17;19.90;51.40
40289;DHT22;28991;52.028;5.526;2023-05-07T03:44:43;19.70;51.30
40289;DHT22;28991;52.028;5.526;2023-05-07T03:47:08;19.60;51.20
40289;DHT22;28991;52.028;5.526;2023-05-07T03:49:35;19.70;51.30
40289;DHT22;28991;52.028;5.526;2023-05-07T03:52:01;19.60;51.20
40289;DHT22;28991;52.028;5.526;2023-05-07T03:54:26;19.70;51.30
40289;DHT22;28991;52.028;5.526;2023-05-07T03:56:52;19.70;51.30
40289;DHT22;28991;52.028;5.526;2023-05-07T03:59:17;19.60;51.20
40289;DHT22;28991;52.028;5.526;2023-05-07T04:01:43;19.60;51.20
40289;DHT22;28991;52.028;5.526;2023-05-07T04:04:08;19.60;51.20
40289;DHT22;28991;52.028;5.526;2023-05-07T04:06:34;19.70;51.30
40289;DHT22;28991;52.028;5.526;2023-05-07T04:09:00;19.70;51.30
40289;DHT22;28991;52.028;5.526;2023-05-07T04:11:26;19.60;51.20
40289;DHT22;28991;52.028;5.526;2023-05-07T04:13:51;19.70;51.30
40289;DHT22;28991;52.028;5.526;2023-05-07T04:16:17;19.70;51.30
40289;DHT22;28991;52.028;5.526;2023-05-07T04:18:42;20.20;51.60
40289;DHT22;28991;52.028;5.526;2023-05-07T04:21:19;19.70;51.30
40289;DHT22;28991;52.028;5.526;2023-05-07T04:23:46;19.60;51.40
40289;DHT22;28991;52.028;5.526;2023-05-07T04:26:12;19.60;51.30
40289;DHT22;28991;52.028;5.526;2023-05-07T04:28:38;19.80;51.30
40289;DHT22;28991;52.028;5.526;2023-05-07T04:31:05;19.60;51.30
40289;DHT22;28991;52.028;5.526;2023-05-07T04:33:31;19.60;51.30
40289;DHT22;28991;52.028;5.526;2023-05-07T04:35:57;19.60;51.30
40289;DHT22;28991;52.028;5.526;2023-05-07T04:38:22;19.70;51.60
40289;DHT22;28991;52.028;5.526;2023-05-07T04:40:49;19.60;51.70
40289;DHT22;28991;52.028;5.526;2023-05-07T04:43:14;19.60;52.40
40289;DHT22;28991;52.028;5.526;2023-05-07T04:45:41;19.70;53.80
40289;DHT22;28991;52.028;5.526;2023-05-07T04:48:08;19.70;53.00
40289;DHT22;28991;52.028;5.526;2023-05-07T04:50:33;19.80;53.40
40289;DHT22;28991;52.028;5.526;2023-05-07T04:52:59;19.80;53.00
40289;DHT22;28991;52.028;5.526;2023-05-07T04:55:25;20.10;53.40
40289;DHT22;28991;52.028;5.526;2023-05-07T04:57:51;19.90;53.00
40289;DHT22;28991;52.028;5.526;2023-05-07T05:00:17;20.00;54.00
40289;DHT22;28991;52.028;5.526;2023-05-07T05:02:45;20.00;54.60
40289;DHT22;28991;52.028;5.526;2023-05-07T05:05:10;20.00;54.20
40289;DHT22;28991;52.028;5.526;2023-05-07T05:07:36;20.00;54.30
40289;DHT22;28991;52.028;5.526;2023-05-07T05:10:02;20.10;54.80
40289;DHT22;28991;52.028;5.526;2023-05-07T05:12:29;20.10;55.10
40289;DHT22;28991;52.028;5.526;2023-05-07T05:14:55;20.10;55.60
40289;DHT22;28991;52.028;5.526;2023-05-07T05:17:21;20.50;55.70
40289;DHT22;28991;52.028;5.526;2023-05-07T05:19:46;20.10;55.80
40289;DHT22;28991;52.028;5.526;2023-05-07T05:22:12;20.10;56.00
40289;DHT22;28991;52.028;5.526;2023-05-07T05:24:37;20.10;56.20
40289;DHT22;28991;52.028;5.526;2023-05-07T05:27:03;20.10;56.30
40289;DHT22;28991;52.028;5.526;2023-05-07T05:29:28;20.10;56.50
40289;DHT22;28991;52.028;5.526;2023-05-07T05:31:54;20.10;56.70
40289;DHT22;28991;52.028;5.526;2023-05-07T05:34:20;20.10;56.80
40289;DHT22;28991;52.028;5.526;2023-05-07T05:36:47;20.10;56.90
40289;DHT22;28991;52.028;5.526;2023-05-07T05:39:12;20.10;57.20
40289;DHT22;28991;52.028;5.526;2023-05-07T05:41:38;20.10;57.30
40289;DHT22;28991;52.028;5.526;2023-05-07T05:44:03;20.10;57.30
40289;DHT22;28991;52.028;5.526;2023-05-07T05:46:29;20.10;57.60
40289;DHT22;28991;52.028;5.526;2023-05-07T05:48:55;20.00;57.40
40289;DHT22;28991;52.028;5.526;2023-05-07T05:51:21;20.10;57.60
40289;DHT22;28991;52.028;5.526;2023-05-07T05:53:46;20.10;57.50
40289;DHT22;28991;52.028;5.526;2023-05-07T05:56:12;20.10;57.70
40289;DHT22;28991;52.028;5.526;2023-05-07T05:58:37;20.00;57.60
40289;DHT22;28991;52.028;5.526;2023-05-07T06:01:03;20.20;58.00
40289;DHT22;28991;52.028;5.526;2023-05-07T06:03:29;20.20;58.00
40289;DHT22;28991;52.028;5.526;2023-05-07T06:05:54;20.10;57.90
40289;DHT22;28991;52.028;5.526;2023-05-07T06:08:20;20.10;58.10
40289;DHT22;28991;52.028;5.526;2023-05-07T06:10:45;20.20;58.50
40289;DHT22;28991;52.028;5.526;2023-05-07T06:13:11;20.10;58.30
40289;DHT22;28991;52.028;5.526;2023-05-07T06:15:36;20.10;58.30
40289;DHT22;28991;52.028;5.526;2023-05-07T06:18:02;20.10;58.40
40289;DHT22;28991;52.028;5.526;2023-05-07T06:20:28;20.10;58.50
40289;DHT22;28991;52.028;5.526;2023-05-07T06:22:53;20.10;58.60
40289;DHT22;28991;52.028;5.526;2023-05-07T06:25:19;20.10;58.70
40289;DHT22;28991;52.028;5.526;2023-05-07T06:27:45;20.30;58.90
40289;DHT22;28991;52.028;5.526;2023-05-07T06:30:11;20.00;58.80
40289;DHT22;28991;52.028;5.526;2023-05-07T06:32:36;20.10;58.90
40289;DHT22;28991;52.028;5.526;2023-05-07T06:35:02;20.90;59.40
40289;DHT22;28991;52.028;5.526;2023-05-07T06:37:28;20.10;58.90
40289;DHT22;28991;52.028;5.526;2023-05-07T06:39:53;20.10;59.00
40289;DHT22;28991;52.028;5.526;2023-05-07T06:42:19;20.10;59.00
40289;DHT22;28991;52.028;5.526;2023-05-07T06:44:44;20.10;59.10
40289;DHT22;28991;52.028;5.526;2023-05-07T06:47:10;20.40;59.20
40289;DHT22;28991;52.028;5.526;2023-05-07T06:49:35;20.10;59.10
40289;DHT22;28991;52.028;5.526;2023-05-07T06:52:01;20.10;59.20
40289;DHT22;28991;52.028;5.526;2023-05-07T06:54:27;20.20;59.40
40289;DHT22;28991;52.028;5.526;2023-05-07T06:56:52;20.20;59.40
40289;DHT22;28991;52.028;5.526;2023-05-07T06:59:18;20.20;60.20
40289;DHT22;28991;52.028;5.526;2023-05-07T07:01:44;20.20;59.60
40289;DHT22;28991;52.028;5.526;2023-05-07T07:04:10;20.20;59.70
40289;DHT22;28991;52.028;5.526;2023-05-07T07:06:35;20.60;59.90
40289;DHT22;28991;52.028;5.526;2023-05-07T07:09:01;20.30;59.80
40289;DHT22;28991;52.028;5.526;2023-05-07T07:11:26;20.40;60.00
40289;DHT22;28991;52.028;5.526;2023-05-07T07:13:52;20.30;59.80
40289;DHT22;28991;52.028;5.526;2023-05-07T07:16:20;20.40;59.90
40289;DHT22;28991;52.028;5.526;2023-05-07T07:18:46;20.40;59.90
40289;DHT22;28991;52.028;5.526;2023-05-07T07:21:11;20.40;59.90
40289;DHT22;28991;52.028;5.526;2023-05-07T07:23:37;20.40;59.90
40289;DHT22;28991;52.028;5.526;2023-05-07T07:26:02;20.50;60.00
40289;DHT22;28991;52.028;5.526;2023-05-07T07:28:28;20.50;60.00
40289;DHT22;28991;52.028;5.526;2023-05-07T07:30:54;20.40;59.90
40289;DHT22;28991;52.028;5.526;2023-05-07T07:33:19;20.50;60.10
40289;DHT22;28991;52.028;5.526;2023-05-07T07:35:45;20.50;60.20
40289;DHT22;28991;52.028;5.526;2023-05-07T07:38:11;20.50;60.20
40289;DHT22;28991;52.028;5.526;2023-05-07T07:40:36;20.40;60.20
40289;DHT22;28991;52.028;5.526;2023-05-07T07:43:02;20.40;60.30
40289;DHT22;28991;52.028;5.526;2023-05-07T07:45:28;20.40;60.40
40289;DHT22;28991;52.028;5.526;2023-05-07T07:47:54;20.40;60.40
40289;DHT22;28991;52.028;5.526;2023-05-07T07:50:20;20.40;60.60
40289;DHT22;28991;52.028;5.526;2023-05-07T07:52:46;20.40;60.50
40289;DHT22;28991;52.028;5.526;2023-05-07T07:55:12;20.40;60.60
40289;DHT22;28991;52.028;5.526;2023-05-07T07:57:37;20.40;60.60
40289;DHT22;28991;52.028;5.526;2023-05-07T08:00:03;20.40;60.70
40289;DHT22;28991;52.028;5.526;2023-05-07T08:02:29;20.40;60.80
40289;DHT22;28991;52.028;5.526;2023-05-07T08:04:55;20.40;60.70
40289;DHT22;28991;52.028;5.526;2023-05-07T08:07:21;20.40;60.90
40289;DHT22;28991;52.028;5.526;2023-05-07T08:09:48;20.50;61.00
40289;DHT22;28991;52.028;5.526;2023-05-07T08:12:14;20.60;61.20
40289;DHT22;28991;52.028;5.526;2023-05-07T08:14:40;20.40;61.20
40289;DHT22;28991;52.028;5.526;2023-05-07T08:17:05;20.50;61.10
40289;DHT22;28991;52.028;5.526;2023-05-07T08:19:31;20.40;61.20
40289;DHT22;28991;52.028;5.526;2023-05-07T08:21:56;20.50;61.20
40289;DHT22;28991;52.028;5.526;2023-05-07T08:24:22;20.50;61.20
40289;DHT22;28991;52.028;5.526;2023-05-07T08:26:47;20.50;61.30
40289;DHT22;28991;52.028;5.526;2023-05-07T08:29:13;20.60;61.30
40289;DHT22;28991;52.028;5.526;2023-05-07T08:31:39;20.70;61.30
40289;DHT22;28991;52.028;5.526;2023-05-07T08:34:05;20.70;61.20
40289;DHT22;28991;52.028;5.526;2023-05-07T08:36:31;20.90;61.10
40289;DHT22;28991;52.028;5.526;2023-05-07T08:38:57;20.80;60.90
40289;DHT22;28991;52.028;5.526;2023-05-07T08:41:22;20.90;61.00
40289;DHT22;28991;52.028;5.526;2023-05-07T08:43:49;20.90;60.80
40289;DHT22;28991;52.028;5.526;2023-05-07T08:46:20;20.90;60.90
40289;DHT22;28991;52.028;5.526;2023-05-07T08:48:49;21.00;61.10
40289;DHT22;28991;52.028;5.526;2023-05-07T08:51:17;20.90;61.10
40289;DHT22;28991;52.028;5.526;2023-05-07T08:53:43;20.90;61.20
40289;DHT22;28991;52.028;5.526;2023-05-07T08:56:10;21.30;61.50
40289;DHT22;28991;52.028;5.526;2023-05-07T08:58:36;20.90;61.30
40289;DHT22;28991;52.028;5.526;2023-05-07T09:01:06;20.90;61.30
40289;DHT22;28991;52.028;5.526;2023-05-07T09:03:32;21.00;61.30
40289;DHT22;28991;52.028;5.526;2023-05-07T09:05:58;21.00;61.30
40289;DHT22;28991;52.028;5.526;2023-05-07T09:08:27;20.80;61.20
40289;DHT22;28991;52.028;5.526;2023-05-07T09:10:53;21.10;61.30
40289;DHT22;28991;52.028;5.526;2023-05-07T09:13:19;21.20;61.30
40289;DHT22;28991;52.028;5.526;2023-05-07T09:15:45;21.10;61.10
40289;DHT22;28991;52.028;5.526;2023-05-07T09:18:10;21.20;61.00
40289;DHT22;28991;52.028;5.526;2023-05-07T09:20:37;21.40;60.90
40289;DHT22;28991;52.028;5.526;2023-05-07T09:23:03;21.40;60.80
40289;DHT22;28991;52.028;5.526;2023-05-07T09:25:33;21.50;60.50
40289;DHT22;28991;52.028;5.526;2023-05-07T09:28:00;21.60;60.20
40289;DHT22;28991;52.028;5.526;2023-05-07T09:30:30;21.70;60.10
40289;DHT22;28991;52.028;5.526;2023-05-07T09:32:58;21.80;59.90
40289;DHT22;28991;52.028;5.526;2023-05-07T09:35:24;22.00;59.90
40289;DHT22;28991;52.028;5.526;2023-05-07T09:37:57;21.80;59.80
40289;DHT22;28991;52.028;5.526;2023-05-07T09:40:24;21.80;59.80
40289;DHT22;28991;52.028;5.526;2023-05-07T09:42:50;21.80;60.30
40289;DHT22;28991;52.028;5.526;2023-05-07T09:45:21;21.80;59.80
40289;DHT22;28991;52.028;5.526;2023-05-07T09:47:48;21.80;60.00
40289;DHT22;28991;52.028;5.526;2023-05-07T09:50:16;21.80;60.00
40289;DHT22;28991;52.028;5.526;2023-05-07T09:52:42;21.60;59.90
40289;DHT22;28991;52.028;5.526;2023-05-07T09:55:09;21.80;60.40
40289;DHT22;28991;52.028;5.526;2023-05-07T09:57:36;21.70;60.40
40289;DHT22;28991;52.028;5.526;2023-05-07T10:00:03;21.70;60.40
40289;DHT22;28991;52.028;5.526;2023-05-07T10:02:35;21.70;60.40
40289;DHT22;28991;52.028;5.526;2023-05-07T10:05:03;21.70;60.40
40289;DHT22;28991;52.028;5.526;2023-05-07T10:07:30;21.70;60.80
40289;DHT22;28991;52.028;5.526;2023-05-07T10:09:56;21.60;61.20
40289;DHT22;28991;52.028;5.526;2023-05-07T10:12:23;21.60;61.10
40289;DHT22;28991;52.028;5.526;2023-05-07T10:14:50;21.60;60.70
40289;DHT22;28991;52.028;5.526;2023-05-07T10:17:16;21.60;60.80
40289;DHT22;28991;52.028;5.526;2023-05-07T10:19:44;21.60;61.00
40289;DHT22;28991;52.028;5.526;2023-05-07T10:22:11;21.80;61.30
40289;DHT22;28991;52.028;5.526;2023-05-07T10:24:39;21.60;61.10
40289;DHT22;28991;52.028;5.526;2023-05-07T10:27:11;21.60;60.70
40289;DHT22;28991;52.028;5.526;2023-05-07T10:29:49;21.60;60.60
40289;DHT22;28991;52.028;5.526;2023-05-07T10:32:33;21.60;61.00
40289;DHT22;28991;52.028;5.526;2023-05-07T10:35:03;21.70;60.80
40289;DHT22;28991;52.028;5.526;2023-05-07T10:37:30;21.70;61.10
40289;DHT22;28991;52.028;5.526;2023-05-07T10:39:56;21.70;60.90
40289;DHT22;28991;52.028;5.526;2023-05-07T10:42:23;21.60;60.70
40289;DHT22;28991;52.028;5.526;2023-05-07T10:44:48;21.70;60.70
40289;DHT22;28991;52.028;5.526;2023-05-07T10:47:16;21.70;60.60
40289;DHT22;28991;52.028;5.526;2023-05-07T10:52:23;21.60;60.50
40289;DHT22;28991;52.028;5.526;2023-05-07T10:57:46;21.60;60.30
40289;DHT22;28991;52.028;5.526;2023-05-07T11:05:29;21.60;59.90
40289;DHT22;28991;52.028;5.526;2023-05-07T11:07:57;21.70;59.80
40289;DHT22;28991;52.028;5.526;2023-05-07T11:10:23;21.80;59.70
40289;DHT22;28991;52.028;5.526;2023-05-07T11:13:08;21.70;59.50
40289;DHT22;28991;52.028;5.526;2023-05-07T11:15:39;21.70;59.40
40289;DHT22;28991;52.028;5.526;2023-05-07T11:18:05;21.70;59.30
40289;DHT22;28991;52.028;5.526;2023-05-07T11:20:47;21.80;59.30
40289;DHT22;28991;52.028;5.526;2023-05-07T11:26:15;21.70;59.00
40289;DHT22;28991;52.028;5.526;2023-05-07T11:28:42;21.80;59.10
40289;DHT22;28991;52.028;5.526;2023-05-07T11:31:09;21.70;59.00
40289;DHT22;28991;52.028;5.526;2023-05-07T11:33:35;21.70;58.90
40289;DHT22;28991;52.028;5.526;2023-05-07T11:36:05;21.70;58.80
40289;DHT22;28991;52.028;5.526;2023-05-07T11:38:34;21.80;58.80
40289;DHT22;28991;52.028;5.526;2023-05-07T11:41:00;21.80;58.70
40289;DHT22;28991;52.028;5.526;2023-05-07T11:43:26;22.00;58.70
40289;DHT22;28991;52.028;5.526;2023-05-07T11:45:52;21.80;58.50
40289;DHT22;28991;52.028;5.526;2023-05-07T11:48:18;21.80;58.40
40289;DHT22;28991;52.028;5.526;2023-05-07T11:51:06;21.80;58.30
40289;DHT22;28991;52.028;5.526;2023-05-07T11:53:42;21.80;58.20
40289;DHT22;28991;52.028;5.526;2023-05-07T11:56:14;21.90;58.20
40289;DHT22;28991;52.028;5.526;2023-05-07T11:58:41;21.80;58.20
40289;DHT22;28991;52.028;5.526;2023-05-07T12:01:08;21.90;58.10
40289;DHT22;28991;52.028;5.526;2023-05-07T12:03:35;21.90;58.10
40289;DHT22;28991;52.028;5.526;2023-05-07T12:06:05;21.80;58.00
40289;DHT22;28991;52.028;5.526;2023-05-07T12:08:31;21.80;58.00
40289;DHT22;28991;52.028;5.526;2023-05-07T12:10:56;21.90;58.00
40289;DHT22;28991;52.028;5.526;2023-05-07T12:13:24;21.80;57.90
40289;DHT22;28991;52.028;5.526;2023-05-07T12:15:53;21.80;57.90
40289;DHT22;28991;52.028;5.526;2023-05-07T12:18:20;21.80;58.00
40289;DHT22;28991;52.028;5.526;2023-05-07T12:20:46;21.80;58.00
40289;DHT22;28991;52.028;5.526;2023-05-07T12:23:12;21.80;58.00
40289;DHT22;28991;52.028;5.526;2023-05-07T12:25:39;21.70;58.00
40289;DHT22;28991;52.028;5.526;2023-05-07T12:28:05;21.70;58.00
40289;DHT22;28991;52.028;5.526;2023-05-07T12:30:36;21.80;58.00
40289;DHT22;28991;52.028;5.526;2023-05-07T12:33:02;21.80;58.00
40289;DHT22;28991;52.028;5.526;2023-05-07T12:35:31;21.80;57.90
40289;DHT22;28991;52.028;5.526;2023-05-07T12:37:58;21.80;57.90
40289;DHT22;28991;52.028;5.526;2023-05-07T12:40:38;22.30;58.10
40289;DHT22;28991;52.028;5.526;2023-05-07T12:43:04;21.80;57.80
40289;DHT22;28991;52.028;5.526;2023-05-07T12:45:30;21.80;57.70
40289;DHT22;28991;52.028;5.526;2023-05-07T12:47:56;21.80;57.70
40289;DHT22;28991;52.028;5.526;2023-05-07T12:50:22;21.80;57.70
40289;DHT22;28991;52.028;5.526;2023-05-07T12:52:48;21.80;57.90
40289;DHT22;28991;52.028;5.526;2023-05-07T12:55:15;21.70;57.70
40289;DHT22;28991;52.028;5.526;2023-05-07T12:57:43;21.80;57.70
40289;DHT22;28991;52.028;5.526;2023-05-07T13:00:09;22.00;57.80
40289;DHT22;28991;52.028;5.526;2023-05-07T13:02:40;21.70;57.70
40289;DHT22;28991;52.028;5.526;2023-05-07T13:05:06;21.70;57.70
40289;DHT22;28991;52.028;5.526;2023-05-07T13:07:32;21.70;57.70
40289;DHT22;28991;52.028;5.526;2023-05-07T13:09:57;21.80;57.80
40289;DHT22;28991;52.028;5.526;2023-05-07T13:12:23;21.70;57.80
40289;DHT22;28991;52.028;5.526;2023-05-07T13:14:49;21.70;57.80
40289;DHT22;28991;52.028;5.526;2023-05-07T13:17:14;21.60;57.80
40289;DHT22;28991;52.028;5.526;2023-05-07T13:19:40;21.60;57.80
40289;DHT22;28991;52.028;5.526;2023-05-07T13:22:05;21.60;57.80
40289;DHT22;28991;52.028;5.526;2023-05-07T13:24:31;21.60;57.80
40289;DHT22;28991;52.028;5.526;2023-05-07T13:26:56;21.60;57.90
40289;DHT22;28991;52.028;5.526;2023-05-07T13:29:22;21.50;57.90
40289;DHT22;28991;52.028;5.526;2023-05-07T13:31:54;21.60;57.90
40289;DHT22;28991;52.028;5.526;2023-05-07T13:34:20;21.50;57.90
40289;DHT22;28991;52.028;5.526;2023-05-07T13:36:45;21.50;57.90
40289;DHT22;28991;52.028;5.526;2023-05-07T13:39:11;21.50;57.90
40289;DHT22;28991;52.028;5.526;2023-05-07T13:41:37;21.50;57.90
40289;DHT22;28991;52.028;5.526;2023-05-07T13:44:02;21.40;57.90
40289;DHT22;28991;52.028;5.526;2023-05-07T13:46:28;21.40;58.00
40289;DHT22;28991;52.028;5.526;2023-05-07T13:48:55;21.40;58.00
40289;DHT22;28991;52.028;5.526;2023-05-07T13:51:20;21.60;58.10
40289;DHT22;28991;52.028;5.526;2023-05-07T13:53:47;21.30;58.00
40289;DHT22;28991;52.028;5.526;2023-05-07T13:56:12;21.30;58.10
40289;DHT22;28991;52.028;5.526;2023-05-07T13:58:39;21.40;58.10
40289;DHT22;28991;52.028;5.526;2023-05-07T14:01:05;21.30;58.10
40289;DHT22;28991;52.028;5.526;2023-05-07T14:03:30;21.30;58.10
40289;DHT22;28991;52.028;5.526;2023-05-07T14:05:58;21.20;58.10
40289;DHT22;28991;52.028;5.526;2023-05-07T14:08:25;21.20;58.20
40289;DHT22;28991;52.028;5.526;2023-05-07T14:10:51;21.20;58.10
40289;DHT22;28991;52.028;5.526;2023-05-07T14:13:16;21.20;58.20
40289;DHT22;28991;52.028;5.526;2023-05-07T14:15:42;21.20;58.20
40289;DHT22;28991;52.028;5.526;2023-05-07T14:18:12;21.20;58.20
40289;DHT22;28991;52.028;5.526;2023-05-07T14:20:37;21.70;58.40
40289;DHT22;28991;52.028;5.526;2023-05-07T14:23:03;21.20;58.10
40289;DHT22;28991;52.028;5.526;2023-05-07T14:25:29;21.20;58.10
40289;DHT22;28991;52.028;5.526;2023-05-07T14:27:54;21.30;58.10
40289;DHT22;28991;52.028;5.526;2023-05-07T14:30:20;21.30;58.10
40289;DHT22;28991;52.028;5.526;2023-05-07T14:32:48;21.50;58.20
40289;DHT22;28991;52.028;5.526;2023-05-07T14:35:14;21.20;58.00
40289;DHT22;28991;52.028;5.526;2023-05-07T14:37:39;21.30;58.00
40289;DHT22;28991;52.028;5.526;2023-05-07T14:40:06;21.20;58.00
40289;DHT22;28991;52.028;5.526;2023-05-07T14:42:31;21.20;58.00
40289;DHT22;28991;52.028;5.526;2023-05-07T14:44:57;21.20;58.00
40289;DHT22;28991;52.028;5.526;2023-05-07T14:47:22;21.20;58.00
40289;DHT22;28991;52.028;5.526;2023-05-07T14:49:48;21.20;58.00
40289;DHT22;28991;52.028;5.526;2023-05-07T14:52:13;21.10;58.00
40289;DHT22;28991;52.028;5.526;2023-05-07T14:54:39;21.20;58.00
40289;DHT22;28991;52.028;5.526;2023-05-07T14:57:06;21.10;58.00
40289;DHT22;28991;52.028;5.526;2023-05-07T14:59:32;21.70;58.40
40289;DHT22;28991;52.028;5.526;2023-05-07T15:01:57;21.00;58.00
40289;DHT22;28991;52.028;5.526;2023-05-07T15:04:24;21.10;58.20
40289;DHT22;28991;52.028;5.526;2023-05-07T15:06:50;21.00;58.20
40289;DHT22;28991;52.028;5.526;2023-05-07T15:09:15;21.00;58.20
40289;DHT22;28991;52.028;5.526;2023-05-07T15:11:41;21.10;58.30
40289;DHT22;28991;52.028;5.526;2023-05-07T15:14:06;21.00;58.30
40289;DHT22;28991;52.028;5.526;2023-05-07T15:16:32;20.90;58.30
40289;DHT22;28991;52.028;5.526;2023-05-07T15:18:58;20.90;58.30
40289;DHT22;28991;52.028;5.526;2023-05-07T15:21:23;20.90;58.40
40289;DHT22;28991;52.028;5.526;2023-05-07T15:23:49;20.80;58.40
40289;DHT22;28991;52.028;5.526;2023-05-07T15:26:15;20.90;58.50
40289;DHT22;28991;52.028;5.526;2023-05-07T15:28:41;20.80;58.50
40289;DHT22;28991;52.028;5.526;2023-05-07T15:31:06;20.80;58.60
40289;DHT22;28991;52.028;5.526;2023-05-07T15:33:32;20.80;58.60
40289;DHT22;28991;52.028;5.526;2023-05-07T15:35:58;20.80;58.70
40289;DHT22;28991;52.028;5.526;2023-05-07T15:38:25;20.60;58.60